sensor_id;sensor_type;location;lat;lon;timestamp;pressure;altitude;pressure_sealevel;temperature;humidity
15670;BME280;18524;45.190;5.732;2024-01-30T00:00:19;100789.63;;;7.65;100.00
15670;BME280;18524;45.190;5.732;2024-01-30T00:05:10;100799.72;;;7.52;100.00
15670;BME280;18524;45.190;5.732;2024-01-30T00:10:00;100797.06;;;7.54;100.00
15670;BME280;18524;45.190;5.732;2024-01-30T00:14:51;100789.91;;;7.37;100.00
15670;BME280;18524;45.190;5.732;2024-01-30T00:19:41;100796.28;;;7.30;100.00
15670;BME280;18524;45.190;5.732;2024-01-30T00:24:31;100787.84;;;7.45;100.00
15670;BME280;18524;45.190;5.732;2024-01-30T00:29:22;100793.16;;;7.22;100.00
15670;BME280;18524;45.190;5.732;2024-01-30T00:34:13;100789.38;;;7.29;100.00
15670;BME280;18524;45.190;5.732;2024-01-30T00:39:03;100789.31;;;7.31;100.00
15670;BME280;18524;45.190;5.732;2024-01-30T00:43:57;100782.28;;;7.11;100.00
15670;BME280;18524;45.190;5.732;2024-01-30T00:48:47;100788.25;;;7.14;100.00
15670;BME280;18524;45.190;5.732;2024-01-30T00:53:37;100794.59;;;6.85;100.00
15670;BME280;18524;45.190;5.732;2024-01-30T00:58:28;100793.75;;;6.85;100.00
15670;BME280;18524;45.190;5.732;2024-01-30T01:03:18;100791.81;;;6.90;100.00
15670;BME280;18524;45.190;5.732;2024-01-30T01:08:08;100791.13;;;6.85;100.00
15670;BME280;18524;45.190;5.732;2024-01-30T01:12:59;100791.94;;;6.64;100.00
15670;BME280;18524;45.190;5.732;2024-01-30T01:17:49;100788.53;;;6.85;100.00
15670;BME280;18524;45.190;5.732;2024-01-30T01:22:39;100787.69;;;6.61;100.00
15670;BME280;18524;45.190;5.732;2024-01-30T01:27:30;100787.38;;;6.47;100.00
15670;BME280;18524;45.190;5.732;2024-01-30T01:32:22;100792.78;;;6.64;100.00
15670;BME280;18524;45.190;5.732;2024-01-30T01:37:12;100787.38;;;6.47;100.00
15670;BME280;18524;45.190;5.732;2024-01-30T01:42:03;100785.31;;;6.78;100.00
15670;BME280;18524;45.190;5.732;2024-01-30T01:46:54;100789.19;;;6.90;100.00
15670;BME280;18524;45.190;5.732;2024-01-30T01:51:46;100785.88;;;7.08;100.00
15670;BME280;18524;45.190;5.732;2024-01-30T01:56:37;100784.81;;;6.90;100.00
15670;BME280;18524;45.190;5.732;2024-01-30T02:01:28;100784.78;;;6.69;100.00
15670;BME280;18524;45.190;5.732;2024-01-30T02:06:19;100793.00;;;6.81;100.00
15670;BME280;18524;45.190;5.732;2024-01-30T02:11:10;100783.16;;;6.66;100.00
15670;BME280;18524;45.190;5.732;2024-01-30T02:16:01;100779.09;;;6.59;100.00
15670;BME280;18524;45.190;5.732;2024-01-30T02:20:53;100782.88;;;6.50;100.00
15670;BME280;18524;45.190;5.732;2024-01-30T02:25:44;100786.84;;;6.61;100.00
15670;BME280;18524;45.190;5.732;2024-01-30T02:30:34;100784.69;;;6.72;100.00
15670;BME280;18524;45.190;5.732;2024-01-30T02:35:25;100772.28;;;6.78;100.00
15670;BME280;18524;45.190;5.732;2024-01-30T02:40:15;100778.03;;;6.86;100.00
15670;BME280;18524;45.190;5.732;2024-01-30T02:45:06;100773.19;;;6.77;100.00
15670;BME280;18524;45.190;5.732;2024-01-30T02:49:56;100770.50;;;6.79;100.00
15670;BME280;18524;45.190;5.732;2024-01-30T02:54:46;100780.34;;;6.72;100.00
15670;BME280;18524;45.190;5.732;2024-01-30T02:59:37;100779.03;;;6.61;100.00
15670;BME280;18524;45.190;5.732;2024-01-30T03:04:27;100774.34;;;6.47;100.00
15670;BME280;18524;45.190;5.732;2024-01-30T03:09:20;100781.31;;;6.46;100.00
15670;BME280;18524;45.190;5.732;2024-01-30T03:14:10;100788.16;;;6.25;100.00
15670;BME280;18524;45.190;5.732;2024-01-30T03:19:01;100791.53;;;6.27;100.00
15670;BME280;18524;45.190;5.732;2024-01-30T03:23:52;100784.84;;;6.67;100.00
15670;BME280;18524;45.190;5.732;2024-01-30T03:28:43;100781.63;;;6.61;100.00
15670;BME280;18524;45.190;5.732;2024-01-30T03:33:33;100775.44;;;6.63;100.00
15670;BME280;18524;45.190;5.732;2024-01-30T03:38:24;100780.84;;;6.58;100.00
15670;BME280;18524;45.190;5.732;2024-01-30T03:43:14;100785.38;;;6.77;100.00
15670;BME280;18524;45.190;5.732;2024-01-30T03:48:05;100780.47;;;6.68;100.00
15670;BME280;18524;45.190;5.732;2024-01-30T03:52:56;100785.44;;;6.75;100.00
15670;BME280;18524;45.190;5.732;2024-01-30T03:57:46;100793.25;;;6.52;100.00
15670;BME280;18524;45.190;5.732;2024-01-30T04:02:36;100790.28;;;6.39;100.00
15670;BME280;18524;45.190;5.732;2024-01-30T04:07:27;100784.94;;;6.42;100.00
15670;BME280;18524;45.190;5.732;2024-01-30T04:12:17;100779.50;;;6.48;100.00
15670;BME280;18524;45.190;5.732;2024-01-30T04:17:07;100794.00;;;6.55;100.00
15670;BME280;18524;45.190;5.732;2024-01-30T04:21:58;100783.25;;;6.41;100.00
15670;BME280;18524;45.190;5.732;2024-01-30T04:26:48;100799.59;;;6.21;100.00
15670;BME280;18524;45.190;5.732;2024-01-30T04:31:38;100802.69;;;6.31;100.00
15670;BME280;18524;45.190;5.732;2024-01-30T04:36:29;100805.53;;;6.25;100.00
15670;BME280;18524;45.190;5.732;2024-01-30T04:41:19;100801.16;;;6.25;100.00
15670;BME280;18524;45.190;5.732;2024-01-30T04:46:09;100801.91;;;6.29;100.00
15670;BME280;18524;45.190;5.732;2024-01-30T04:51:00;100808.91;;;6.04;100.00
15670;BME280;18524;45.190;5.732;2024-01-30T04:55:53;100811.69;;;6.22;100.00
15670;BME280;18524;45.190;5.732;2024-01-30T05:00:43;100826.38;;;6.25;100.00
15670;BME280;18524;45.190;5.732;2024-01-30T05:05:33;100805.44;;;6.51;100.00
15670;BME280;18524;45.190;5.732;2024-01-30T05:10:24;100820.06;;;6.55;100.00
15670;BME280;18524;45.190;5.732;2024-01-30T05:15:14;100814.22;;;6.49;100.00
15670;BME280;18524;45.190;5.732;2024-01-30T05:20:05;100815.03;;;6.26;100.00
15670;BME280;18524;45.190;5.732;2024-01-30T05:24:56;100826.19;;;6.30;100.00
15670;BME280;18524;45.190;5.732;2024-01-30T05:29:46;100825.16;;;6.35;100.00
15670;BME280;18524;45.190;5.732;2024-01-30T05:34:37;100825.41;;;6.27;100.00
15670;BME280;18524;45.190;5.732;2024-01-30T05:39:27;100827.66;;;6.38;100.00
15670;BME280;18524;45.190;5.732;2024-01-30T05:44:17;100835.53;;;6.37;100.00
15670;BME280;18524;45.190;5.732;2024-01-30T05:49:08;100826.97;;;6.08;100.00
15670;BME280;18524;45.190;5.732;2024-01-30T05:53:58;100836.16;;;5.93;100.00
15670;BME280;18524;45.190;5.732;2024-01-30T05:58:49;100835.47;;;6.13;100.00
15670;BME280;18524;45.190;5.732;2024-01-30T06:03:40;100840.81;;;6.10;100.00
15670;BME280;18524;45.190;5.732;2024-01-30T06:08:30;100847.25;;;6.00;100.00
15670;BME280;18524;45.190;5.732;2024-01-30T06:13:21;100854.31;;;5.97;100.00
15670;BME280;18524;45.190;5.732;2024-01-30T06:18:11;100845.75;;;6.18;100.00
15670;BME280;18524;45.190;5.732;2024-01-30T06:23:01;100857.13;;;6.40;100.00
15670;BME280;18524;45.190;5.732;2024-01-30T06:27:52;100866.22;;;6.04;100.00
15670;BME280;18524;45.190;5.732;2024-01-30T06:32:42;100861.50;;;5.62;100.00
15670;BME280;18524;45.190;5.732;2024-01-30T06:37:32;100867.56;;;5.34;100.00
15670;BME280;18524;45.190;5.732;2024-01-30T06:42:23;100874.28;;;5.42;100.00
15670;BME280;18524;45.190;5.732;2024-01-30T06:47:13;100867.88;;;5.52;100.00
15670;BME280;18524;45.190;5.732;2024-01-30T06:52:06;100879.34;;;5.46;100.00
15670;BME280;18524;45.190;5.732;2024-01-30T06:56:57;100885.63;;;5.11;100.00
15670;BME280;18524;45.190;5.732;2024-01-30T07:01:47;100895.31;;;5.06;100.00
15670;BME280;18524;45.190;5.732;2024-01-30T07:06:38;100894.91;;;5.20;100.00
15670;BME280;18524;45.190;5.732;2024-01-30T07:11:28;100899.13;;;5.24;100.00
15670;BME280;18524;45.190;5.732;2024-01-30T07:16:19;100897.34;;;4.96;100.00
15670;BME280;18524;45.190;5.732;2024-01-30T07:21:09;100905.44;;;5.15;100.00
15670;BME280;18524;45.190;5.732;2024-01-30T07:26:01;100907.22;;;5.13;100.00
15670;BME280;18524;45.190;5.732;2024-01-30T07:30:51;100911.53;;;5.14;100.00
15670;BME280;18524;45.190;5.732;2024-01-30T07:35:42;100915.59;;;5.24;100.00
15670;BME280;18524;45.190;5.732;2024-01-30T07:40:32;100930.63;;;5.13;100.00
15670;BME280;18524;45.190;5.732;2024-01-30T07:45:23;100937.25;;;5.25;100.00
15670;BME280;18524;45.190;5.732;2024-01-30T07:50:14;100939.72;;;5.29;100.00
15670;BME280;18524;45.190;5.732;2024-01-30T07:55:05;100947.28;;;5.37;100.00
15670;BME280;18524;45.190;5.732;2024-01-30T07:59:58;100945.47;;;5.39;100.00
15670;BME280;18524;45.190;5.732;2024-01-30T08:04:48;100947.41;;;5.32;100.00
15670;BME280;18524;45.190;5.732;2024-01-30T08:09:39;100958.50;;;5.67;100.00
15670;BME280;18524;45.190;5.732;2024-01-30T08:14:29;100948.91;;;5.69;100.00
15670;BME280;18524;45.190;5.732;2024-01-30T08:19:20;100947.09;;;5.71;100.00
15670;BME280;18524;45.190;5.732;2024-01-30T08:24:10;100950.16;;;5.28;100.00
15670;BME280;18524;45.190;5.732;2024-01-30T08:29:01;100953.53;;;5.31;100.00
15670;BME280;18524;45.190;5.732;2024-01-30T08:33:52;100949.03;;;5.64;100.00
15670;BME280;18524;45.190;5.732;2024-01-30T08:38:42;100948.84;;;5.71;100.00
15670;BME280;18524;45.190;5.732;2024-01-30T08:43:32;100945.03;;;5.81;100.00
15670;BME280;18524;45.190;5.732;2024-01-30T08:48:23;100945.44;;;5.97;100.00
15670;BME280;18524;45.190;5.732;2024-01-30T08:53:13;100937.97;;;5.84;100.00
15670;BME280;18524;45.190;5.732;2024-01-30T08:58:03;100935.78;;;5.72;100.00
15670;BME280;18524;45.190;5.732;2024-01-30T09:02:55;100938.44;;;5.99;100.00
15670;BME280;18524;45.190;5.732;2024-01-30T09:07:45;100938.56;;;6.20;100.00
15670;BME280;18524;45.190;5.732;2024-01-30T09:12:36;100944.69;;;6.44;100.00
15670;BME280;18524;45.190;5.732;2024-01-30T09:17:26;100930.94;;;6.89;100.00
15670;BME280;18524;45.190;5.732;2024-01-30T09:22:16;100934.38;;;7.80;100.00
15670;BME280;18524;45.190;5.732;2024-01-30T09:27:07;100930.91;;;7.79;100.00
15670;BME280;18524;45.190;5.732;2024-01-30T09:31:57;100931.47;;;7.88;100.00
15670;BME280;18524;45.190;5.732;2024-01-30T09:36:48;100927.22;;;8.48;99.16
15670;BME280;18524;45.190;5.732;2024-01-30T09:41:49;100928.16;;;8.86;95.14
15670;BME280;18524;45.190;5.732;2024-01-30T09:46:47;100931.00;;;9.19;92.39
15670;BME280;18524;45.190;5.732;2024-01-30T09:51:40;100921.72;;;9.68;88.25
15670;BME280;18524;45.190;5.732;2024-01-30T09:56:30;100930.78;;;10.14;83.94
15670;BME280;18524;45.190;5.732;2024-01-30T10:01:21;100926.88;;;10.23;82.00
15670;BME280;18524;45.190;5.732;2024-01-30T10:06:12;100923.97;;;10.62;80.33
15670;BME280;18524;45.190;5.732;2024-01-30T10:11:04;100924.06;;;11.09;77.98
15670;BME280;18524;45.190;5.732;2024-01-30T10:15:54;100925.59;;;10.98;73.81
15670;BME280;18524;45.190;5.732;2024-01-30T10:20:45;100926.53;;;10.96;75.04
15670;BME280;18524;45.190;5.732;2024-01-30T10:25:36;100917.16;;;11.24;74.66
15670;BME280;18524;45.190;5.732;2024-01-30T10:30:27;100919.16;;;11.50;73.11
15670;BME280;18524;45.190;5.732;2024-01-30T10:35:18;100911.19;;;11.83;71.93
15670;BME280;18524;45.190;5.732;2024-01-30T10:40:09;100909.69;;;12.09;68.84
15670;BME280;18524;45.190;5.732;2024-01-30T10:45:12;100900.50;;;12.16;69.34
15670;BME280;18524;45.190;5.732;2024-01-30T10:50:03;100902.28;;;12.74;65.50
15670;BME280;18524;45.190;5.732;2024-01-30T10:54:54;100896.72;;;12.50;66.14
15670;BME280;18524;45.190;5.732;2024-01-30T10:59:46;100892.97;;;12.10;67.36
15670;BME280;18524;45.190;5.732;2024-01-30T11:04:38;100887.22;;;12.34;66.60
15670;BME280;18524;45.190;5.732;2024-01-30T11:09:29;100883.66;;;12.49;66.28
15670;BME280;18524;45.190;5.732;2024-01-30T11:14:31;100880.44;;;12.30;65.69
15670;BME280;18524;45.190;5.732;2024-01-30T11:19:33;100871.63;;;12.31;66.11
15670;BME280;18524;45.190;5.732;2024-01-30T11:24:24;100872.31;;;12.04;65.46
15670;BME280;18524;45.190;5.732;2024-01-30T11:29:14;100868.44;;;12.40;64.44
15670;BME280;18524;45.190;5.732;2024-01-30T11:34:06;100856.50;;;12.77;64.19
15670;BME280;18524;45.190;5.732;2024-01-30T11:38:56;100858.47;;;12.45;64.40
15670;BME280;18524;45.190;5.732;2024-01-30T11:43:53;100865.69;;;12.41;64.42
15670;BME280;18524;45.190;5.732;2024-01-30T11:48:44;100850.53;;;12.88;63.21
15670;BME280;18524;45.190;5.732;2024-01-30T11:53:34;100846.72;;;12.65;63.56
15670;BME280;18524;45.190;5.732;2024-01-30T11:58:25;100834.25;;;13.09;62.07
15670;BME280;18524;45.190;5.732;2024-01-30T12:03:16;100827.19;;;13.64;60.99
15670;BME280;18524;45.190;5.732;2024-01-30T12:08:06;100830.97;;;13.60;59.81
15670;BME280;18524;45.190;5.732;2024-01-30T12:12:57;100824.94;;;13.85;60.00
15670;BME280;18524;45.190;5.732;2024-01-30T12:17:48;100821.06;;;14.16;59.31
15670;BME280;18524;45.190;5.732;2024-01-30T12:22:43;100803.00;;;14.48;59.28
15670;BME280;18524;45.190;5.732;2024-01-30T12:27:34;100802.53;;;14.79;56.16
15670;BME280;18524;45.190;5.732;2024-01-30T12:32:25;100801.09;;;14.37;55.79
15670;BME280;18524;45.190;5.732;2024-01-30T12:37:15;100798.06;;;13.53;58.62
15670;BME280;18524;45.190;5.732;2024-01-30T12:42:09;100790.66;;;13.97;58.77
15670;BME280;18524;45.190;5.732;2024-01-30T12:47:03;100782.09;;;14.57;57.19
15670;BME280;18524;45.190;5.732;2024-01-30T12:51:53;100772.84;;;14.88;56.58
15670;BME280;18524;45.190;5.732;2024-01-30T12:56:44;100782.44;;;14.89;55.50
15670;BME280;18524;45.190;5.732;2024-01-30T13:01:34;100771.09;;;14.63;54.78
15670;BME280;18524;45.190;5.732;2024-01-30T13:06:24;100770.81;;;14.04;56.47
15670;BME280;18524;45.190;5.732;2024-01-30T13:11:15;100772.22;;;13.45;58.93
15670;BME280;18524;45.190;5.732;2024-01-30T13:16:05;100765.25;;;13.44;59.68
15670;BME280;18524;45.190;5.732;2024-01-30T13:20:56;100770.16;;;13.23;60.71
15670;BME280;18524;45.190;5.732;2024-01-30T13:25:46;100763.59;;;13.43;60.31
15670;BME280;18524;45.190;5.732;2024-01-30T13:30:37;100766.75;;;13.61;60.52
15670;BME280;18524;45.190;5.732;2024-01-30T13:35:27;100763.38;;;13.59;59.74
15670;BME280;18524;45.190;5.732;2024-01-30T13:40:19;100758.25;;;13.30;60.56
15670;BME280;18524;45.190;5.732;2024-01-30T13:45:09;100761.69;;;13.18;61.03
15670;BME280;18524;45.190;5.732;2024-01-30T13:50:02;100762.44;;;13.20;61.56
15670;BME280;18524;45.190;5.732;2024-01-30T13:54:53;100762.56;;;13.31;61.10
15670;BME280;18524;45.190;5.732;2024-01-30T13:59:43;100750.25;;;13.32;59.39
15670;BME280;18524;45.190;5.732;2024-01-30T14:04:34;100752.03;;;13.31;59.08
15670;BME280;18524;45.190;5.732;2024-01-30T14:09:24;100750.56;;;13.27;59.42
15670;BME280;18524;45.190;5.732;2024-01-30T14:14:15;100762.47;;;13.06;59.13
15670;BME280;18524;45.190;5.732;2024-01-30T14:19:05;100751.16;;;13.18;59.65
15670;BME280;18524;45.190;5.732;2024-01-30T14:23:56;100751.94;;;13.06;58.96
15670;BME280;18524;45.190;5.732;2024-01-30T14:28:46;100751.09;;;13.05;58.86
15670;BME280;18524;45.190;5.732;2024-01-30T14:33:37;100742.34;;;13.05;57.47
15670;BME280;18524;45.190;5.732;2024-01-30T14:38:27;100740.66;;;13.04;58.20
15670;BME280;18524;45.190;5.732;2024-01-30T14:43:18;100742.69;;;13.13;58.44
15670;BME280;18524;45.190;5.732;2024-01-30T14:48:09;100738.22;;;13.28;58.91
15670;BME280;18524;45.190;5.732;2024-01-30T14:52:59;100738.75;;;13.33;58.01
15670;BME280;18524;45.190;5.732;2024-01-30T14:57:49;100738.38;;;13.39;59.51
15670;BME280;18524;45.190;5.732;2024-01-30T15:02:40;100743.66;;;13.39;59.80
15670;BME280;18524;45.190;5.732;2024-01-30T15:07:30;100738.44;;;13.37;58.76
15670;BME280;18524;45.190;5.732;2024-01-30T15:12:21;100733.28;;;13.36;58.94
15670;BME280;18524;45.190;5.732;2024-01-30T15:17:11;100747.88;;;13.41;58.80
15670;BME280;18524;45.190;5.732;2024-01-30T15:22:01;100745.22;;;13.41;60.17
15670;BME280;18524;45.190;5.732;2024-01-30T15:26:52;100734.16;;;13.49;61.51
15670;BME280;18524;45.190;5.732;2024-01-30T15:31:42;100738.69;;;13.47;60.18
15670;BME280;18524;45.190;5.732;2024-01-30T15:36:33;100735.22;;;13.47;60.48
15670;BME280;18524;45.190;5.732;2024-01-30T15:41:23;100727.31;;;13.47;60.56
15670;BME280;18524;45.190;5.732;2024-01-30T15:46:14;100736.28;;;13.44;59.96
15670;BME280;18524;45.190;5.732;2024-01-30T15:51:04;100738.66;;;13.34;58.82
15670;BME280;18524;45.190;5.732;2024-01-30T15:55:54;100746.44;;;13.23;61.02
15670;BME280;18524;45.190;5.732;2024-01-30T16:00:45;100751.19;;;13.31;62.91
15670;BME280;18524;45.190;5.732;2024-01-30T16:05:35;100755.19;;;13.24;62.83
15670;BME280;18524;45.190;5.732;2024-01-30T16:10:25;100757.38;;;13.17;62.75
15670;BME280;18524;45.190;5.732;2024-01-30T16:15:16;100758.69;;;13.10;64.83
15670;BME280;18524;45.190;5.732;2024-01-30T16:20:08;100768.97;;;13.00;63.52
15670;BME280;18524;45.190;5.732;2024-01-30T16:24:59;100761.34;;;12.96;63.87
15670;BME280;18524;45.190;5.732;2024-01-30T16:29:49;100771.53;;;12.88;63.56
15670;BME280;18524;45.190;5.732;2024-01-30T16:34:40;100770.91;;;12.84;65.93
15670;BME280;18524;45.190;5.732;2024-01-30T16:39:30;100776.31;;;12.68;67.24
15670;BME280;18524;45.190;5.732;2024-01-30T16:44:20;100787.19;;;12.62;68.24
15670;BME280;18524;45.190;5.732;2024-01-30T16:49:11;100788.97;;;12.62;69.25
15670;BME280;18524;45.190;5.732;2024-01-30T16:54:01;100798.09;;;12.56;69.29
15670;BME280;18524;45.190;5.732;2024-01-30T16:58:52;100796.72;;;12.50;70.22
15670;BME280;18524;45.190;5.732;2024-01-30T17:03:42;100803.78;;;12.36;70.07
15670;BME280;18524;45.190;5.732;2024-01-30T17:08:33;100814.50;;;12.33;70.90
15670;BME280;18524;45.190;5.732;2024-01-30T17:13:24;100824.22;;;12.16;73.02
15670;BME280;18524;45.190;5.732;2024-01-30T17:18:15;100842.72;;;12.01;74.05
15670;BME280;18524;45.190;5.732;2024-01-30T17:23:05;100848.91;;;12.00;74.78
15670;BME280;18524;45.190;5.732;2024-01-30T17:27:58;100844.78;;;11.96;74.44
15670;BME280;18524;45.190;5.732;2024-01-30T17:32:48;100855.88;;;12.01;75.47
15670;BME280;18524;45.190;5.732;2024-01-30T17:37:38;100854.13;;;11.70;74.24
15670;BME280;18524;45.190;5.732;2024-01-30T17:42:30;100857.31;;;11.61;75.52
15670;BME280;18524;45.190;5.732;2024-01-30T17:47:20;100865.59;;;11.69;74.01
15670;BME280;18524;45.190;5.732;2024-01-30T17:52:11;100862.16;;;11.52;75.58
15670;BME280;18524;45.190;5.732;2024-01-30T17:57:01;100862.91;;;11.54;75.64
15670;BME280;18524;45.190;5.732;2024-01-30T18:01:51;100861.13;;;11.39;77.60
15670;BME280;18524;45.190;5.732;2024-01-30T18:06:42;100856.63;;;11.41;76.93
15670;BME280;18524;45.190;5.732;2024-01-30T18:11:32;100868.19;;;11.23;78.14
15670;BME280;18524;45.190;5.732;2024-01-30T18:16:22;100874.47;;;11.20;79.27
15670;BME280;18524;45.190;5.732;2024-01-30T18:21:14;100877.34;;;11.16;80.33
15670;BME280;18524;45.190;5.732;2024-01-30T18:26:05;100883.25;;;11.04;81.92
15670;BME280;18524;45.190;5.732;2024-01-30T18:30:56;100893.25;;;10.97;80.60
15670;BME280;18524;45.190;5.732;2024-01-30T18:35:46;100905.66;;;10.78;81.65
15670;BME280;18524;45.190;5.732;2024-01-30T18:40:37;100906.19;;;10.84;82.14
15670;BME280;18524;45.190;5.732;2024-01-30T18:45:27;100912.13;;;10.88;81.88
15670;BME280;18524;45.190;5.732;2024-01-30T18:50:17;100917.16;;;10.75;83.20
15670;BME280;18524;45.190;5.732;2024-01-30T18:55:08;100922.97;;;10.64;83.60
15670;BME280;18524;45.190;5.732;2024-01-30T18:59:58;100927.22;;;10.67;83.68
15670;BME280;18524;45.190;5.732;2024-01-30T19:04:49;100930.47;;;10.55;85.22
15670;BME280;18524;45.190;5.732;2024-01-30T19:09:42;100918.28;;;10.54;85.04
15670;BME280;18524;45.190;5.732;2024-01-30T19:14:32;100921.00;;;10.35;87.53
15670;BME280;18524;45.190;5.732;2024-01-30T19:19:24;100928.09;;;10.33;87.10
15670;BME280;18524;45.190;5.732;2024-01-30T19:24:14;100921.84;;;10.36;88.46
15670;BME280;18524;45.190;5.732;2024-01-30T19:29:05;100914.47;;;10.44;86.90
15670;BME280;18524;45.190;5.732;2024-01-30T19:33:55;100919.47;;;10.31;87.36
15670;BME280;18524;45.190;5.732;2024-01-30T19:38:46;100920.91;;;10.19;87.68
15670;BME280;18524;45.190;5.732;2024-01-30T19:43:36;100928.94;;;10.16;86.89
15670;BME280;18524;45.190;5.732;2024-01-30T19:48:27;100919.50;;;9.95;89.80
15670;BME280;18524;45.190;5.732;2024-01-30T19:53:17;100920.41;;;9.94;90.85
15670;BME280;18524;45.190;5.732;2024-01-30T19:58:08;100918.88;;;9.90;91.99
15670;BME280;18524;45.190;5.732;2024-01-30T20:02:58;100921.13;;;9.97;90.92
15670;BME280;18524;45.190;5.732;2024-01-30T20:07:50;100927.44;;;9.93;90.68
15670;BME280;18524;45.190;5.732;2024-01-30T20:12:40;100929.34;;;9.73;92.68
15670;BME280;18524;45.190;5.732;2024-01-30T20:17:31;100934.13;;;9.82;92.42
15670;BME280;18524;45.190;5.732;2024-01-30T20:22:22;100943.06;;;9.78;92.18
15670;BME280;18524;45.190;5.732;2024-01-30T20:27:12;100938.44;;;9.83;92.37
15670;BME280;18524;45.190;5.732;2024-01-30T20:32:03;100957.88;;;9.79;92.66
15670;BME280;18524;45.190;5.732;2024-01-30T20:36:54;100955.03;;;9.83;92.09
15670;BME280;18524;45.190;5.732;2024-01-30T20:41:44;100960.50;;;9.79;92.21
15670;BME280;18524;45.190;5.732;2024-01-30T20:46:35;100962.56;;;9.53;94.80
15670;BME280;18524;45.190;5.732;2024-01-30T20:51:25;100964.34;;;9.71;93.71
15670;BME280;18524;45.190;5.732;2024-01-30T20:56:15;100963.81;;;9.63;92.53
15670;BME280;18524;45.190;5.732;2024-01-30T21:01:06;100960.50;;;9.60;92.65
15670;BME280;18524;45.190;5.732;2024-01-30T21:05:57;100962.84;;;9.47;92.85
15670;BME280;18524;45.190;5.732;2024-01-30T21:10:48;100965.91;;;9.38;93.49
15670;BME280;18524;45.190;5.732;2024-01-30T21:15:39;100969.13;;;9.24;93.75
15670;BME280;18524;45.190;5.732;2024-01-30T21:20:29;100976.56;;;9.15;95.68
15670;BME280;18524;45.190;5.732;2024-01-30T21:25:19;100976.88;;;8.88;94.69
15670;BME280;18524;45.190;5.732;2024-01-30T21:30:10;100984.28;;;8.78;98.18
15670;BME280;18524;45.190;5.732;2024-01-30T21:35:00;100983.72;;;8.91;98.44
15670;BME280;18524;45.190;5.732;2024-01-30T21:39:51;100980.28;;;8.90;97.62
15670;BME280;18524;45.190;5.732;2024-01-30T21:44:44;100971.13;;;9.00;98.06
15670;BME280;18524;45.190;5.732;2024-01-30T21:49:37;100981.66;;;8.99;96.85
15670;BME280;18524;45.190;5.732;2024-01-30T21:54:28;100978.75;;;8.66;98.39
15670;BME280;18524;45.190;5.732;2024-01-30T21:59:18;100979.19;;;8.35;99.75
15670;BME280;18524;45.190;5.732;2024-01-30T22:04:09;100985.47;;;8.51;100.00
15670;BME280;18524;45.190;5.732;2024-01-30T22:08:59;100987.22;;;8.51;100.00
15670;BME280;18524;45.190;5.732;2024-01-30T22:13:49;100988.78;;;8.55;99.89
15670;BME280;18524;45.190;5.732;2024-01-30T22:18:40;100998.31;;;8.57;99.75
15670;BME280;18524;45.190;5.732;2024-01-30T22:23:31;101003.84;;;8.70;99.30
15670;BME280;18524;45.190;5.732;2024-01-30T22:28:21;101009.16;;;8.68;98.00
15670;BME280;18524;45.190;5.732;2024-01-30T22:33:12;101013.09;;;8.58;99.84
15670;BME280;18524;45.190;5.732;2024-01-30T22:38:02;101012.31;;;8.34;100.00
15670;BME280;18524;45.190;5.732;2024-01-30T22:42:57;101017.34;;;8.17;100.00
15670;BME280;18524;45.190;5.732;2024-01-30T22:47:47;101005.19;;;8.16;100.00
15670;BME280;18524;45.190;5.732;2024-01-30T22:52:39;101007.72;;;8.19;100.00
15670;BME280;18524;45.190;5.732;2024-01-30T22:57:29;101007.75;;;8.18;100.00
15670;BME280;18524;45.190;5.732;2024-01-30T23:02:21;101004.72;;;8.28;100.00
15670;BME280;18524;45.190;5.732;2024-01-30T23:07:12;101005.94;;;8.41;100.00
15670;BME280;18524;45.190;5.732;2024-01-30T23:12:06;101005.59;;;8.49;100.00
15670;BME280;18524;45.190;5.732;2024-01-30T23:16:57;101005.19;;;8.38;100.00
15670;BME280;18524;45.190;5.732;2024-01-30T23:21:47;101001.91;;;8.11;100.00
15670;BME280;18524;45.190;5.732;2024-01-30T23:26:40;101007.47;;;8.03;100.00
15670;BME280;18524;45.190;5.732;2024-01-30T23:31:31;101014.63;;;7.98;100.00
15670;BME280;18524;45.190;5.732;2024-01-30T23:36:22;101006.28;;;8.10;100.00
15670;BME280;18524;45.190;5.732;2024-01-30T23:41:12;101000.09;;;8.13;100.00
15670;BME280;18524;45.190;5.732;2024-01-30T23:46:03;101001.84;;;8.12;100.00
15670;BME280;18524;45.190;5.732;2024-01-30T23:50:53;101001.38;;;8.03;100.00
15670;BME280;18524;45.190;5.732;2024-01-30T23:55:43;101001.63;;;7.97;100.00
